Time;durP1;ratioP1;P1;durP2;ratioP2;P2;SDS_P1;SDS_P2;PMS_P1;PMS_P2;Temp;Humidity;BMP_temperature;BMP_pressure;BME280_temperature;BME280_humidity;BME280_pressure;Samples;Min_cycle;Max_cycle;Signal;HPM_P1;HPM_P2
2023/12/28 00:01:32;;;;;;;4.45;2.42;;;;;;;7.52;100.00;100456.31;5023273;28;20515;-74
2023/12/28 00:04:17;;;;;;;13.20;3.95;;;;;;;7.61;100.00;100458.56;5015500;28;20108;-72
2023/12/28 00:07:04;;;;;;;12.88;3.83;;;;;;;7.71;100.00;100459.94;5023112;28;20483;-73
2023/12/28 00:09:49;;;;;;;10.43;3.03;;;;;;;7.82;100.00;100464.78;5024146;28;20037;-73
2023/12/28 00:12:35;;;;;;;9.80;2.67;;;;;;;7.95;100.00;100443.19;5024437;28;20083;-74
2023/12/28 00:15:22;;;;;;;5.45;2.58;;;;;;;8.02;100.00;100449.94;5027201;28;20543;-73
2023/12/28 00:18:08;;;;;;;8.65;2.00;;;;;;;8.13;100.00;100449.47;5039637;28;20033;-73
2023/12/28 00:20:53;;;;;;;7.80;2.05;;;;;;;8.18;100.00;100444.00;5024787;28;20048;-73
2023/12/28 00:23:39;;;;;;;10.45;2.38;;;;;;;8.22;100.00;100449.09;5026161;28;20509;-73
2023/12/28 00:26:25;;;;;;;12.10;2.58;;;;;;;8.28;100.00;100458.50;5026971;28;20480;-71
2023/12/28 00:29:10;;;;;;;11.18;2.22;;;;;;;8.31;100.00;100454.91;5037383;28;20052;-72
2023/12/28 00:31:56;;;;;;;9.98;2.05;;;;;;;8.34;100.00;100455.63;5037500;28;20132;-73
2023/12/28 00:34:42;;;;;;;9.30;2.20;;;;;;;8.36;100.00;100455.56;5037883;28;20041;-73
2023/12/28 00:37:28;;;;;;;12.27;2.10;;;;;;;8.35;100.00;100467.03;5033773;28;20106;-73
2023/12/28 00:40:13;;;;;;;11.70;2.60;;;;;;;8.32;100.00;100456.63;5035580;28;20049;-73
2023/12/28 00:42:59;;;;;;;9.80;2.50;;;;;;;8.31;100.00;100452.25;5034724;28;20065;-73
2023/12/28 00:45:45;;;;;;;10.57;2.35;;;;;;;8.24;100.00;100452.50;5036640;28;20120;-73
2023/12/28 00:48:31;;;;;;;11.23;2.05;;;;;;;8.19;100.00;100454.50;5022896;28;20083;-71
2023/12/28 00:51:16;;;;;;;14.43;2.17;;;;;;;8.21;100.00;100460.56;5037384;28;20049;-72
2023/12/28 00:54:02;;;;;;;18.30;2.53;;;;;;;8.18;100.00;100462.47;5037516;28;20578;-72
2023/12/28 00:56:48;;;;;;;11.13;2.42;;;;;;;8.17;100.00;100469.50;5036445;28;20049;-73
2023/12/28 00:59:34;;;;;;;7.18;2.10;;;;;;;8.18;100.00;100471.25;5035182;28;20045;-73
2023/12/28 01:02:19;;;;;;;11.10;2.08;;;;;;;8.18;100.00;100470.38;5025252;28;20037;-72
2023/12/28 01:05:05;;;;;;;9.35;2.55;;;;;;;8.12;100.00;100479.41;5033143;28;20411;-73
2023/12/28 01:07:51;;;;;;;10.02;1.75;;;;;;;8.10;100.00;100475.97;5023237;28;20049;-72
2023/12/28 01:10:37;;;;;;;10.98;2.33;;;;;;;8.08;100.00;100476.03;5036779;28;20057;-72
2023/12/28 01:13:23;;;;;;;15.52;2.40;;;;;;;8.08;100.00;100485.72;5037683;28;20589;-73
2023/12/28 01:16:08;;;;;;;13.15;2.15;;;;;;;8.07;100.00;100482.22;5036531;28;20055;-73
2023/12/28 01:18:54;;;;;;;11.63;2.22;;;;;;;8.11;100.00;100475.03;5041044;28;20487;-72
2023/12/28 01:21:40;;;;;;;7.78;1.98;;;;;;;8.10;100.00;100483.88;5037479;28;20045;-72
2023/12/28 01:24:26;;;;;;;11.95;2.40;;;;;;;8.08;100.00;100496.28;5037324;28;20044;-73
2023/12/28 01:27:12;;;;;;;12.15;2.67;;;;;;;8.08;100.00;100504.19;5036252;28;20048;-73
2023/12/28 01:29:57;;;;;;;11.77;2.10;;;;;;;8.10;100.00;100490.03;5035582;28;20979;-72
2023/12/28 01:32:43;;;;;;;9.07;2.10;;;;;;;8.11;100.00;100496.13;5026715;28;20052;-73
2023/12/28 01:35:29;;;;;;;13.30;2.33;;;;;;;8.12;100.00;100488.16;5023007;28;20147;-73
2023/12/28 01:38:14;;;;;;;9.00;2.45;;;;;;;8.17;100.00;100485.34;5033739;28;20037;-73
2023/12/28 01:41:00;;;;;;;14.25;2.63;;;;;;;8.19;100.00;100477.38;5020482;28;20061;-73
2023/12/28 01:43:46;;;;;;;11.18;2.33;;;;;;;8.18;100.00;100476.53;5035543;28;20037;-74
2023/12/28 01:46:33;;;;;;;10.73;2.38;;;;;;;8.19;100.00;100488.78;5036326;28;20081;-73
2023/12/28 01:49:19;;;;;;;8.50;1.80;;;;;;;8.18;100.00;100476.53;5023061;28;20064;-72
2023/12/28 01:52:06;;;;;;;11.38;2.10;;;;;;;8.21;100.00;100478.16;5034041;28;20120;-71
2023/12/28 01:54:52;;;;;;;11.15;2.17;;;;;;;8.23;100.00;100495.63;5037557;28;20462;-72
2023/12/28 01:57:37;;;;;;;8.63;1.88;;;;;;;8.27;100.00;100491.97;5037173;28;20079;-72
2023/12/28 02:00:24;;;;;;;13.38;2.35;;;;;;;8.26;100.00;100481.47;5035640;28;20036;-73
2023/12/28 02:03:10;;;;;;;9.93;2.13;;;;;;;8.25;100.00;100479.75;5017584;28;20040;-73
2023/12/28 02:05:57;;;;;;;12.65;2.20;;;;;;;8.25;100.00;100491.19;5021400;28;20048;-73
2023/12/28 02:08:43;;;;;;;13.57;2.05;;;;;;;8.23;100.00;100484.25;5037849;28;20554;-73
2023/12/28 02:11:28;;;;;;;10.82;2.08;;;;;;;8.24;100.00;100481.53;5023641;28;20065;-73
2023/12/28 02:14:14;;;;;;;9.10;1.75;;;;;;;8.24;100.00;100478.03;5020968;28;20064;-73
2023/12/28 02:17:32;;;;;;;8.13;1.73;;;;;;;8.24;100.00;100478.03;5036752;28;20041;-73
2023/12/28 02:20:19;;;;;;;8.57;1.90;;;;;;;8.26;100.00;100473.56;5034607;28;20043;-72
2023/12/28 02:23:06;;;;;;;8.40;1.83;;;;;;;8.26;100.00;100465.66;5034325;28;20158;-72
2023/12/28 02:25:51;;;;;;;7.15;2.10;;;;;;;8.25;100.00;100470.06;5034637;28;20048;-73
2023/12/28 02:28:37;;;;;;;9.70;2.13;;;;;;;8.22;100.00;100462.28;5035198;28;20048;-73
2023/12/28 02:31:32;;;;;;;14.50;3.03;;;;;;;8.20;100.00;100466.78;5023288;28;20037;-73
2023/12/28 02:34:31;;;;;;;9.00;1.88;;;;;;;8.16;100.00;100462.53;5017475;28;20142;-73
2023/12/28 02:37:18;;;;;;;9.27;1.98;;;;;;;8.14;100.00;100462.63;5035574;28;20041;-73
2023/12/28 02:40:04;;;;;;;5.88;1.85;;;;;;;8.12;100.00;100469.72;5020282;28;21036;-71
2023/12/28 02:42:49;;;;;;;6.65;2.03;;;;;;;8.11;100.00;100470.63;5019086;28;20684;-71
2023/12/28 02:45:36;;;;;;;4.72;1.88;;;;;;;8.12;100.00;100463.59;5035993;28;20513;-74
2023/12/28 02:48:21;;;;;;;7.97;1.83;;;;;;;8.14;100.00;100469.66;5021110;28;20558;-72
2023/12/28 02:51:07;;;;;;;9.90;2.10;;;;;;;8.14;100.00;100465.25;5020268;28;20056;-71
2023/12/28 02:53:53;;;;;;;5.85;2.10;;;;;;;8.13;100.00;100462.66;5008073;28;20041;-72
2023/12/28 02:56:40;;;;;;;6.72;1.95;;;;;;;8.11;100.00;100453.94;5038319;28;20048;-73
2023/12/28 02:59:26;;;;;;;6.30;2.10;;;;;;;8.06;100.00;100456.78;5035175;28;21624;-73
2023/12/28 03:02:12;;;;;;;3.72;1.50;;;;;;;8.05;100.00;100454.22;5035869;28;20850;-73
2023/12/28 03:04:58;;;;;;;4.75;1.73;;;;;;;8.02;100.00;100456.03;5034195;28;20071;-73
2023/12/28 03:07:44;;;;;;;7.43;1.80;;;;;;;8.01;100.00;100459.59;5001393;28;20151;-73
2023/12/28 03:10:29;;;;;;;7.03;2.17;;;;;;;7.99;100.00;100450.03;5014999;28;20046;-73
2023/12/28 03:13:15;;;;;;;8.45;2.10;;;;;;;7.94;100.00;100457.28;5009973;28;20099;-71
2023/12/28 03:16:01;;;;;;;4.50;1.60;;;;;;;7.91;100.00;100452.13;5016651;28;20049;-73
2023/12/28 03:18:47;;;;;;;6.97;1.63;;;;;;;7.89;100.00;100444.28;5008858;28;20081;-73
2023/12/28 03:21:32;;;;;;;9.32;2.00;;;;;;;7.87;100.00;100448.78;5005929;28;20048;-72
2023/12/28 03:24:18;;;;;;;8.55;1.98;;;;;;;7.87;100.00;100438.22;5016118;28;20183;-73
2023/12/28 03:27:04;;;;;;;7.38;1.60;;;;;;;7.89;100.00;100428.47;5022931;28;20037;-72
2023/12/28 03:30:01;;;;;;;8.23;2.00;;;;;;;7.90;100.00;100430.19;5012234;28;20049;-73
2023/12/28 03:32:46;;;;;;;10.40;2.40;;;;;;;7.88;100.00;100430.25;5016413;28;20083;-72
2023/12/28 03:35:32;;;;;;;7.13;1.80;;;;;;;7.89;100.00;100423.19;5020393;28;20075;-72
2023/12/28 03:38:18;;;;;;;6.18;2.13;;;;;;;7.88;100.00;100427.63;5017541;28;20072;-73
2023/12/28 03:41:03;;;;;;;6.93;1.80;;;;;;;7.87;100.00;100425.91;5021066;28;20151;-73
2023/12/28 03:43:49;;;;;;;5.97;1.90;;;;;;;7.89;100.00;100420.56;5020668;28;20045;-72
2023/12/28 03:46:35;;;;;;;6.03;1.77;;;;;;;7.90;100.00;100417.00;5016169;28;20494;-73
2023/12/28 03:49:23;;;;;;;6.65;1.80;;;;;;;7.90;100.00;100422.28;5021214;28;20107;-73
2023/12/28 03:52:08;;;;;;;6.13;2.20;;;;;;;7.90;100.00;100424.91;5012052;28;20042;-74
2023/12/28 03:54:54;;;;;;;7.97;2.10;;;;;;;7.88;100.00;100421.47;5017419;28;20104;-73
2023/12/28 03:57:42;;;;;;;4.85;1.63;;;;;;;7.86;100.00;100423.34;5018276;28;20152;-73
2023/12/28 04:00:27;;;;;;;5.00;1.63;;;;;;;7.86;100.00;100441.78;5008430;28;20499;-72
2023/12/28 04:03:13;;;;;;;8.05;2.00;;;;;;;7.88;100.00;100432.91;5014602;28;22057;-73
2023/12/28 04:05:59;;;;;;;6.32;1.90;;;;;;;7.91;100.00;100438.97;5012142;28;20110;-72
2023/12/28 04:08:44;;;;;;;5.95;2.03;;;;;;;7.90;100.00;100430.19;4988958;28;20077;-70
2023/12/28 04:11:30;;;;;;;5.43;1.95;;;;;;;7.89;100.00;100404.75;5016057;28;20508;-72
2023/12/28 04:14:16;;;;;;;6.32;1.90;;;;;;;7.89;100.00;100425.84;5019339;28;20829;-72
2023/12/28 04:17:02;;;;;;;4.45;1.60;;;;;;;7.90;100.00;100430.19;5009243;28;20088;-72
2023/12/28 04:19:47;;;;;;;8.43;1.73;;;;;;;7.91;100.00;100434.56;5028877;28;21574;-72
2023/12/28 04:22:33;;;;;;;6.68;1.65;;;;;;;7.94;100.00;100452.88;5017465;28;20049;-73
2023/12/28 04:25:19;;;;;;;6.90;1.52;;;;;;;7.98;100.00;100438.66;5011825;28;20496;-72
2023/12/28 04:28:04;;;;;;;9.07;1.70;;;;;;;8.01;100.00;100448.22;5010451;28;20520;-72
2023/12/28 04:30:50;;;;;;;6.65;1.83;;;;;;;8.07;100.00;100440.03;5017972;28;20631;-73
2023/12/28 04:33:36;;;;;;;7.75;1.77;;;;;;;8.22;100.00;100437.69;5003640;28;20037;-72
2023/12/28 04:36:21;;;;;;;6.72;1.80;;;;;;;8.33;100.00;100437.25;5016565;28;20049;-73
2023/12/28 04:39:07;;;;;;;9.48;1.75;;;;;;;8.40;100.00;100407.03;5015963;28;20557;-71
2023/12/28 04:41:54;;;;;;;8.18;1.35;;;;;;;8.46;100.00;100416.47;5024602;28;20041;-72
2023/12/28 04:44:40;;;;;;;8.75;1.38;;;;;;;8.47;100.00;100412.88;5024604;28;20037;-71
2023/12/28 04:47:26;;;;;;;6.63;1.63;;;;;;;8.43;100.00;100422.72;5018047;28;20057;-72
2023/12/28 04:50:11;;;;;;;6.75;1.48;;;;;;;8.42;100.00;100413.09;5016566;28;20080;-72
2023/12/28 04:52:57;;;;;;;12.50;2.03;;;;;;;8.43;100.00;100407.75;5009143;28;20049;-71
2023/12/28 04:55:43;;;;;;;8.98;1.98;;;;;;;8.45;100.00;100410.34;5012094;28;20044;-73
2023/12/28 04:58:29;;;;;;;8.80;1.70;;;;;;;8.48;100.00;100409.31;5022578;28;20041;-73
2023/12/28 05:01:15;;;;;;;9.23;2.17;;;;;;;8.49;100.00;100404.00;5004486;28;20049;-71
2023/12/28 05:04:00;;;;;;;5.40;1.50;;;;;;;8.49;100.00;100411.91;5001819;28;20096;-72
2023/12/28 05:06:46;;;;;;;12.90;1.77;;;;;;;8.52;100.00;100414.47;5020577;28;20053;-71
2023/12/28 05:09:32;;;;;;;10.82;1.70;;;;;;;8.53;100.00;100418.81;5014077;28;20041;-72
2023/12/28 05:12:18;;;;;;;9.43;1.42;;;;;;;8.54;100.00;100423.16;5014945;28;20037;-71
2023/12/28 05:15:04;;;;;;;13.73;1.75;;;;;;;8.53;100.00;100424.09;5019462;28;20049;-72
2023/12/28 05:17:50;;;;;;;8.15;1.70;;;;;;;8.56;100.00;100428.38;5003297;28;20052;-70
2023/12/28 05:20:36;;;;;;;8.20;1.95;;;;;;;8.63;100.00;100413.97;5018214;28;20989;-72
2023/12/28 05:23:22;;;;;;;9.90;1.95;;;;;;;8.70;100.00;100419.84;5018452;28;20029;-72
2023/12/28 05:26:07;;;;;;;12.07;2.13;;;;;;;8.76;100.00;100414.28;5007102;28;20115;-71
2023/12/28 05:28:55;;;;;;;13.02;1.98;;;;;;;8.78;100.00;100414.22;5018122;28;20057;-72
2023/12/28 05:31:41;;;;;;;11.63;1.90;;;;;;;8.73;100.00;100414.44;5013931;28;20034;-72
2023/12/28 05:34:27;;;;;;;11.13;2.05;;;;;;;8.71;100.00;100416.25;5021037;28;20087;-73
2023/12/28 05:37:12;;;;;;;8.40;1.77;;;;;;;8.69;100.00;100415.47;5021173;28;20077;-72
2023/12/28 05:39:58;;;;;;;8.77;1.83;;;;;;;8.70;100.00;100404.00;5018307;28;20047;-71
2023/12/28 05:42:44;;;;;;;9.63;1.77;;;;;;;8.72;100.00;100427.69;5010438;28;20500;-72
2023/12/28 05:45:30;;;;;;;7.88;1.90;;;;;;;8.72;100.00;100425.88;5012588;28;20046;-72
2023/12/28 05:48:15;;;;;;;11.77;2.17;;;;;;;8.71;100.00;100433.91;5014973;28;21239;-71
2023/12/28 05:51:01;;;;;;;14.98;2.30;;;;;;;8.74;100.00;100424.06;5025684;28;20059;-72
2023/12/28 05:53:47;;;;;;;8.82;2.17;;;;;;;8.76;100.00;100422.19;5027442;28;20053;-72
2023/12/28 05:56:33;;;;;;;9.68;1.83;;;;;;;8.76;100.00;100416.91;5034023;28;20049;-75
2023/12/28 05:59:18;;;;;;;6.43;1.73;;;;;;;8.74;100.00;100420.56;5033494;28;20037;-72
2023/12/28 06:02:04;;;;;;;10.77;2.13;;;;;;;8.74;100.00;100421.41;5019838;28;20049;-72
2023/12/28 06:04:50;;;;;;;15.57;1.90;;;;;;;8.73;100.00;100425.00;5008311;28;20049;-71
2023/12/28 06:07:36;;;;;;;10.13;1.88;;;;;;;8.74;100.00;100402.06;5019902;28;20069;-72
2023/12/28 06:10:21;;;;;;;9.82;1.92;;;;;;;8.76;100.00;100402.88;5039542;28;20042;-72
2023/12/28 06:13:07;;;;;;;6.88;1.80;;;;;;;8.78;100.00;100407.13;5036315;28;20056;-72
2023/12/28 06:15:53;;;;;;;12.77;2.17;;;;;;;8.80;100.00;100401.81;5034379;28;20041;-72
2023/12/28 06:18:38;;;;;;;11.65;2.05;;;;;;;8.81;100.00;100420.22;5012326;28;20045;-71
2023/12/28 06:21:24;;;;;;;9.80;1.80;;;;;;;8.84;100.00;100411.31;5029921;28;20050;-72
2023/12/28 06:24:10;;;;;;;12.73;1.95;;;;;;;8.84;100.00;100419.22;5020192;28;20125;-72
2023/12/28 06:26:56;;;;;;;11.23;2.03;;;;;;;8.82;100.00;100415.78;5020052;28;20033;-71
2023/12/28 06:29:42;;;;;;;11.98;2.45;;;;;;;8.86;100.00;100414.72;5020075;28;21442;-73
2023/12/28 06:32:27;;;;;;;20.08;2.22;;;;;;;8.92;100.00;100424.13;5018408;28;20179;-72
2023/12/28 06:35:13;;;;;;;10.75;2.13;;;;;;;8.96;100.00;100409.88;5020490;28;20053;-72
2023/12/28 06:37:59;;;;;;;11.15;2.05;;;;;;;9.02;100.00;100422.81;5013546;28;20072;-72
2023/12/28 06:40:45;;;;;;;17.42;2.40;;;;;;;9.09;100.00;100424.25;5019704;28;20041;-72
2023/12/28 06:43:30;;;;;;;10.88;2.05;;;;;;;9.17;100.00;100436.25;5017974;28;20045;-71
2023/12/28 06:46:17;;;;;;;9.57;2.05;;;;;;;9.20;100.00;100436.09;5001837;28;20958;-72
2023/12/28 06:49:03;;;;;;;12.82;2.28;;;;;;;9.26;100.00;100445.53;5011255;28;20076;-72
2023/12/28 06:51:48;;;;;;;14.32;2.75;;;;;;;9.28;100.00;100433.97;5020140;28;20544;-72
2023/12/28 06:54:34;;;;;;;18.90;2.80;;;;;;;9.30;100.00;100450.59;5004576;28;20527;-71
2023/12/28 06:57:20;;;;;;;12.10;2.30;;;;;;;9.27;100.00;100445.47;5022113;28;20059;-72
2023/12/28 07:00:06;;;;;;;11.63;2.28;;;;;;;9.26;100.00;100433.16;5023437;28;20582;-72
2023/12/28 07:02:52;;;;;;;19.92;2.85;;;;;;;9.26;100.00;100446.38;5022762;28;20080;-72
2023/12/28 07:05:38;;;;;;;15.68;2.75;;;;;;;9.26;100.00;100432.31;5023083;28;20075;-72
2023/12/28 07:08:24;;;;;;;21.83;2.95;;;;;;;9.27;100.00;100444.59;5024965;28;20080;-72
2023/12/28 07:11:11;;;;;;;14.45;2.08;;;;;;;9.23;100.00;100446.53;5012546;28;20463;-72
2023/12/28 07:13:57;;;;;;;21.88;2.83;;;;;;;9.25;100.00;100431.44;5037881;28;20463;-73
2023/12/28 07:16:42;;;;;;;11.85;2.25;;;;;;;9.24;100.00;100445.59;5004120;28;20038;-72
2023/12/28 07:19:28;;;;;;;13.57;2.97;;;;;;;9.26;100.00;100450.81;5026627;28;20053;-71
2023/12/28 07:22:14;;;;;;;14.15;2.90;;;;;;;9.27;100.00;100447.25;5011521;28;20517;-72
2023/12/28 07:24:59;;;;;;;17.50;3.00;;;;;;;9.28;100.00;100463.03;5028417;28;20045;-74
2023/12/28 07:27:45;;;;;;;19.63;3.78;;;;;;;9.28;100.00;100460.38;5001716;28;20617;-73
2023/12/28 07:30:31;;;;;;;17.30;3.10;;;;;;;9.29;100.00;100482.34;5018023;28;20041;-73
2023/12/28 07:33:17;;;;;;;11.18;2.50;;;;;;;9.32;100.00;100463.75;5015873;28;20080;-72
2023/12/28 07:36:03;;;;;;;21.48;2.95;;;;;;;9.31;100.00;100469.97;5011152;28;20050;-73
2023/12/28 07:38:49;;;;;;;16.52;3.70;;;;;;;9.31;100.00;100472.59;5024236;28;20053;-74
2023/12/28 07:41:35;;;;;;;12.95;2.40;;;;;;;9.33;100.00;100508.56;5009358;28;20136;-73
2023/12/28 07:44:20;;;;;;;15.82;3.20;;;;;;;9.34;100.00;100502.38;5014869;28;20050;-72
2023/12/28 07:47:07;;;;;;;21.63;3.53;;;;;;;9.33;100.00;100498.00;5007783;28;20080;-71
2023/12/28 07:49:52;;;;;;;19.33;3.78;;;;;;;9.37;100.00;100504.88;5015833;28;20649;-74
2023/12/28 07:52:38;;;;;;;17.83;3.50;;;;;;;9.37;100.00;100502.22;5013171;28;20052;-73
2023/12/28 07:55:25;;;;;;;18.40;3.42;;;;;;;9.36;100.00;100513.72;5016391;28;20496;-73
2023/12/28 07:58:11;;;;;;;24.35;3.00;;;;;;;9.39;100.00;100510.09;5017252;28;20104;-72
2023/12/28 08:00:57;;;;;;;11.90;3.17;;;;;;;9.41;100.00;100515.31;5013522;28;20287;-71
2023/12/28 08:03:44;;;;;;;22.00;3.70;;;;;;;9.43;100.00;100513.44;5021545;28;20106;-73
2023/12/28 08:06:33;;;;;;;15.52;2.72;;;;;;;9.40;100.00;100509.16;5016104;28;20053;-72
2023/12/28 08:09:19;;;;;;;16.92;3.13;;;;;;;9.37;100.00;100510.16;5012025;28;20431;-72
2023/12/28 08:12:08;;;;;;;20.30;3.38;;;;;;;9.37;100.00;100518.06;5009584;28;20049;-73
2023/12/28 08:14:54;;;;;;;11.88;3.35;;;;;;;9.39;100.00;100502.16;5010543;28;20053;-73
2023/12/28 08:17:40;;;;;;;17.23;2.45;;;;;;;9.40;100.00;100513.56;4999649;28;21963;-72
2023/12/28 08:20:26;;;;;;;25.05;4.00;;;;;;;9.42;100.00;100517.00;5020430;28;20045;-72
2023/12/28 08:23:11;;;;;;;19.42;2.72;;;;;;;9.43;100.00;100509.00;5035574;28;20041;-70
2023/12/28 08:25:57;;;;;;;17.63;3.10;;;;;;;9.47;100.00;100525.56;5026804;28;20077;-71
2023/12/28 08:28:43;;;;;;;18.40;3.03;;;;;;;9.49;100.00;100510.53;5017174;28;20052;-71
2023/12/28 08:31:29;;;;;;;19.98;3.72;;;;;;;9.49;100.00;100508.72;5014189;28;20064;-71
2023/12/28 08:34:15;;;;;;;22.05;4.03;;;;;;;9.46;100.00;100519.44;5018520;28;20475;-73
2023/12/28 08:37:01;;;;;;;19.50;3.45;;;;;;;9.45;100.00;100523.00;5011861;28;20057;-72
2023/12/28 08:39:46;;;;;;;17.63;3.15;;;;;;;9.45;100.00;100522.16;5013556;28;20718;-73
2023/12/28 08:42:35;;;;;;;16.38;3.13;;;;;;;9.46;100.00;100529.13;5017341;28;20115;-73
2023/12/28 08:45:21;;;;;;;21.05;3.58;;;;;;;9.46;100.00;100522.09;5016042;28;20127;-71
2023/12/28 08:48:06;;;;;;;17.80;2.65;;;;;;;9.47;100.00;100521.16;5015053;28;20692;-71
2023/12/28 08:50:52;;;;;;;18.45;2.72;;;;;;;9.47;100.00;100526.44;5014992;28;20049;-72
2023/12/28 08:53:38;;;;;;;19.42;3.20;;;;;;;9.46;100.00;100537.94;5011498;28;20140;-72
2023/12/28 08:56:24;;;;;;;21.90;3.35;;;;;;;9.46;100.00;100543.22;5016264;28;20068;-73
2023/12/28 08:59:10;;;;;;;22.40;3.53;;;;;;;9.48;100.00;100557.22;5016534;28;20108;-71
2023/12/28 09:01:56;;;;;;;14.52;3.65;;;;;;;9.47;100.00;100536.13;5000101;28;20143;-72
2023/12/28 09:04:42;;;;;;;17.20;3.03;;;;;;;9.45;100.00;100553.84;5017763;28;20056;-70
2023/12/28 09:07:27;;;;;;;21.23;3.33;;;;;;;9.44;100.00;100568.00;5018355;28;20049;-71
2023/12/28 09:10:13;;;;;;;24.10;2.97;;;;;;;9.48;100.00;100559.00;5015632;28;20443;-71
2023/12/28 09:12:59;;;;;;;14.30;2.70;;;;;;;9.54;100.00;100558.75;5009633;28;20049;-71
2023/12/28 09:15:45;;;;;;;24.05;3.63;;;;;;;9.57;100.00;100553.31;5014804;28;20083;-72
2023/12/28 09:18:31;;;;;;;17.38;2.92;;;;;;;9.59;100.00;100569.94;5012454;28;20041;-72
2023/12/28 09:21:18;;;;;;;18.70;3.38;;;;;;;9.58;100.00;100576.16;5012025;28;20057;-72
2023/12/28 09:24:04;;;;;;;14.00;2.75;;;;;;;9.60;100.00;100576.09;5011897;28;20475;-72
2023/12/28 09:26:50;;;;;;;16.50;2.53;;;;;;;9.60;100.00;100571.66;5006467;28;20155;-72
2023/12/28 09:29:36;;;;;;;10.10;2.42;;;;;;;9.61;100.00;100583.97;5006381;28;20223;-72
2023/12/28 09:32:22;;;;;;;16.83;3.30;;;;;;;9.60;100.00;100592.78;5006814;28;20045;-72
2023/12/28 09:35:07;;;;;;;17.35;3.00;;;;;;;9.58;100.00;100576.16;5007943;28;20085;-72
2023/12/28 09:37:54;;;;;;;19.60;3.03;;;;;;;9.58;100.00;100588.53;5010665;28;20505;-72
2023/12/28 09:40:43;;;;;;;14.73;2.20;;;;;;;9.60;100.00;100595.44;5002602;28;20045;-72
2023/12/28 09:43:37;;;;;;;21.27;4.40;;;;;;;9.61;100.00;100591.88;4994627;28;20053;-72
2023/12/28 09:46:23;;;;;;;16.90;2.72;;;;;;;9.64;100.00;100606.72;5004334;28;20133;-71
2023/12/28 09:49:09;;;;;;;26.52;3.75;;;;;;;9.63;100.00;100600.59;5007882;28;20115;-72
2023/12/28 09:51:55;;;;;;;17.92;2.65;;;;;;;9.66;100.00;100594.31;5008255;28;20049;-70
2023/12/28 09:54:40;;;;;;;14.50;2.67;;;;;;;9.71;100.00;100609.97;5004004;28;20607;-72
2023/12/28 09:57:26;;;;;;;15.70;2.72;;;;;;;9.69;100.00;100610.03;5011581;28;20041;-71
2023/12/28 10:00:12;;;;;;;17.13;2.83;;;;;;;9.71;100.00;100620.53;4998351;28;20045;-71
2023/12/28 10:02:58;;;;;;;16.10;2.65;;;;;;;9.70;100.00;100618.81;5007070;28;20037;-73
2023/12/28 10:05:45;;;;;;;14.02;2.63;;;;;;;9.70;100.00;100616.19;4995023;28;20107;-72
2023/12/28 10:08:33;;;;;;;14.65;2.25;;;;;;;9.68;100.00;100618.88;5010377;28;20135;-72
2023/12/28 10:11:19;;;;;;;13.48;2.45;;;;;;;9.69;100.00;100625.88;5007586;28;20045;-72
2023/12/28 10:14:06;;;;;;;13.48;2.45;;;;;;;9.67;100.00;100611.88;5007345;28;20061;-73
2023/12/28 10:16:52;;;;;;;17.40;3.30;;;;;;;9.67;100.00;100621.59;5001955;28;22173;-72
2023/12/28 10:19:38;;;;;;;15.60;2.40;;;;;;;9.68;100.00;100633.88;5011372;28;20060;-72
2023/12/28 10:22:23;;;;;;;16.15;2.85;;;;;;;9.69;100.00;100625.03;5014263;28;20936;-71
2023/12/28 10:25:10;;;;;;;14.57;3.05;;;;;;;9.69;100.00;100639.09;4998746;28;20102;-71
2023/12/28 10:27:56;;;;;;;15.15;2.42;;;;;;;9.69;100.00;100660.25;5002199;28;20067;-73
2023/12/28 10:30:41;;;;;;;17.63;2.67;;;;;;;9.69;100.00;100640.91;4992259;28;20246;-72
2023/12/28 10:33:27;;;;;;;13.57;2.38;;;;;;;9.69;100.00;100646.19;5014994;28;20842;-71
2023/12/28 10:36:15;;;;;;;16.85;2.60;;;;;;;9.68;100.00;100631.22;5012634;28;20041;-72
2023/12/28 10:39:01;;;;;;;14.27;2.40;;;;;;;9.67;100.00;100648.91;5013280;28;20176;-70
2023/12/28 10:41:49;;;;;;;12.93;2.60;;;;;;;9.68;100.00;100655.03;5013448;28;20463;-70
2023/12/28 10:44:44;;;;;;;17.23;2.20;;;;;;;9.71;100.00;100641.69;5012429;28;20153;-69
2023/12/28 10:47:37;;;;;;;13.18;2.38;;;;;;;9.71;100.00;100646.97;5012111;28;20060;-71
2023/12/28 10:50:26;;;;;;;15.60;3.08;;;;;;;9.73;100.00;100639.81;5017629;28;20048;-71
2023/12/28 10:53:37;;;;;;;13.75;2.95;;;;;;;9.78;100.00;100656.34;5017023;28;20043;-70
2023/12/28 10:56:46;;;;;;;11.05;2.45;;;;;;;9.79;100.00;100652.75;5019850;28;20065;-72
2023/12/28 10:59:55;;;;;;;16.90;2.30;;;;;;;9.81;100.00;100647.41;5034744;28;20074;-70
2023/12/28 11:02:52;;;;;;;12.73;2.42;;;;;;;9.84;100.00;100656.06;5004075;28;20158;-70
2023/12/28 11:05:40;;;;;;;15.20;2.67;;;;;;;9.86;100.00;100663.94;5016986;28;20045;-70
2023/12/28 11:08:26;;;;;;;18.02;3.55;;;;;;;9.85;100.00;100636.63;5011601;28;20175;-70
2023/12/28 11:11:13;;;;;;;16.33;2.67;;;;;;;9.87;100.00;100652.44;5036061;28;20040;-71
2023/12/28 11:14:00;;;;;;;14.63;3.28;;;;;;;9.86;100.00;100642.78;5044287;28;20188;-70
2023/12/28 11:16:46;;;;;;;13.30;2.40;;;;;;;9.84;100.00;100642.84;5039381;28;20052;-70
2023/12/28 11:19:32;;;;;;;17.30;2.58;;;;;;;9.82;100.00;100639.41;5041804;28;20053;-73
2023/12/28 11:22:19;;;;;;;16.27;2.95;;;;;;;9.85;100.00;100638.41;5041482;28;20052;-72
2023/12/28 11:25:05;;;;;;;17.75;2.70;;;;;;;9.84;100.00;100632.28;5027351;28;20053;-69
2023/12/28 11:27:51;;;;;;;17.02;2.95;;;;;;;9.84;100.00;100621.69;5035275;28;20052;-73
2023/12/28 11:30:37;;;;;;;19.65;3.38;;;;;;;9.85;100.00;100630.47;5046930;28;20068;-71
2023/12/28 11:33:30;;;;;;;15.35;3.42;;;;;;;9.84;100.00;100629.63;5042893;28;20045;-71
2023/12/28 11:36:37;;;;;;;16.40;2.72;;;;;;;9.81;100.00;100627.09;5038752;28;20091;-71
2023/12/28 11:39:34;;;;;;;14.40;2.92;;;;;;;9.80;100.00;100612.16;5037693;28;20041;-70
2023/12/28 11:42:21;;;;;;;17.88;2.72;;;;;;;9.80;100.00;100638.63;5028611;28;20029;-71
2023/12/28 11:45:07;;;;;;;13.27;2.47;;;;;;;9.75;100.00;100630.91;5030316;28;20218;-70
2023/12/28 11:48:02;;;;;;;19.50;2.70;;;;;;;9.74;100.00;100625.66;5049637;28;20102;-71
2023/12/28 11:50:48;;;;;;;18.13;3.42;;;;;;;9.72;100.00;100640.75;5046502;28;20125;-71
2023/12/28 11:53:35;;;;;;;21.48;2.85;;;;;;;9.73;100.00;100639.81;5046012;28;20518;-69
2023/12/28 11:56:21;;;;;;;14.43;2.88;;;;;;;9.75;100.00;100640.63;5031693;28;20117;-71
2023/12/28 11:59:07;;;;;;;15.00;3.10;;;;;;;9.76;100.00;100613.25;5025117;28;20037;-70
2023/12/28 12:01:53;;;;;;;14.45;3.00;;;;;;;9.75;100.00;100632.69;5030706;28;20150;-70
2023/12/28 12:04:39;;;;;;;13.70;2.90;;;;;;;9.78;100.00;100624.63;5016900;28;20028;-71
2023/12/28 12:07:25;;;;;;;20.40;2.85;;;;;;;9.79;100.00;100605.19;5040163;28;20613;-71
2023/12/28 12:10:15;;;;;;;23.15;3.08;;;;;;;9.78;100.00;100606.09;5021164;28;20068;-71
2023/12/28 12:13:02;;;;;;;15.93;3.10;;;;;;;9.78;100.00;100619.31;5037322;28;20041;-71
2023/12/28 12:15:50;;;;;;;15.93;2.88;;;;;;;9.76;100.00;100615.91;5047045;28;20069;-70
2023/12/28 12:18:36;;;;;;;17.30;3.85;;;;;;;9.76;100.00;100621.19;5012639;28;20256;-71
2023/12/28 12:21:23;;;;;;;10.07;2.63;;;;;;;9.75;100.00;100620.31;5023747;28;20048;-70
2023/12/28 12:24:10;;;;;;;13.48;2.63;;;;;;;9.75;100.00;100603.63;5032236;28;20443;-70
2023/12/28 12:26:55;;;;;;;21.63;3.40;;;;;;;9.73;100.00;100606.31;5033966;28;20502;-71
2023/12/28 12:29:41;;;;;;;12.50;2.15;;;;;;;9.72;100.00;100591.41;5036112;28;20049;-71
2023/12/28 12:32:27;;;;;;;13.93;2.65;;;;;;;9.72;100.00;100598.47;5027736;28;20041;-72
2023/12/28 12:35:14;;;;;;;13.57;2.10;;;;;;;9.71;100.00;100605.53;5029008;28;20048;-71
2023/12/28 12:38:00;;;;;;;16.30;2.58;;;;;;;9.74;100.00;100599.22;5027242;28;20037;-71
2023/12/28 12:40:46;;;;;;;14.50;2.25;;;;;;;9.75;100.00;100585.13;5043922;28;20627;-72
2023/12/28 12:43:33;;;;;;;18.15;2.63;;;;;;;9.75;100.00;100604.47;5045553;28;20049;-72
2023/12/28 12:46:18;;;;;;;16.02;2.83;;;;;;;9.76;100.00;100602.69;5031429;28;20699;-71
2023/12/28 12:49:05;;;;;;;11.85;2.20;;;;;;;9.76;100.00;100594.75;5038470;28;20068;-72